sensor_id;sensor_type;location;lat;lon;timestamp;P1;durP1;ratioP1;P2;durP2;ratioP2
18726;SDS011;9492;51.888;5.186;2023-09-30T00:00:46;11.13;;;5.00;;
18726;SDS011;9492;51.888;5.186;2023-09-30T00:03:12;10.33;;;5.63;;
18726;SDS011;9492;51.888;5.186;2023-09-30T00:05:38;8.13;;;4.53;;
18726;SDS011;9492;51.888;5.186;2023-09-30T00:08:04;6.33;;;4.60;;
18726;SDS011;9492;51.888;5.186;2023-09-30T00:10:31;8.33;;;4.90;;
18726;SDS011;9492;51.888;5.186;2023-09-30T00:12:57;8.67;;;5.03;;
18726;SDS011;9492;51.888;5.186;2023-09-30T00:15:24;7.33;;;4.73;;
18726;SDS011;9492;51.888;5.186;2023-09-30T00:17:50;9.73;;;5.07;;
18726;SDS011;9492;51.888;5.186;2023-09-30T00:20:16;7.57;;;4.97;;
18726;SDS011;9492;51.888;5.186;2023-09-30T00:22:42;8.03;;;4.73;;
18726;SDS011;9492;51.888;5.186;2023-09-30T00:25:08;10.83;;;5.50;;
18726;SDS011;9492;51.888;5.186;2023-09-30T00:27:35;10.93;;;5.63;;
18726;SDS011;9492;51.888;5.186;2023-09-30T00:30:01;8.47;;;5.10;;
18726;SDS011;9492;51.888;5.186;2023-09-30T00:32:28;10.63;;;5.30;;
18726;SDS011;9492;51.888;5.186;2023-09-30T00:34:54;7.97;;;5.60;;
18726;SDS011;9492;51.888;5.186;2023-09-30T00:37:20;9.77;;;5.33;;
18726;SDS011;9492;51.888;5.186;2023-09-30T00:39:46;10.67;;;6.00;;
18726;SDS011;9492;51.888;5.186;2023-09-30T00:42:12;8.87;;;4.77;;
18726;SDS011;9492;51.888;5.186;2023-09-30T00:44:38;7.43;;;5.00;;
18726;SDS011;9492;51.888;5.186;2023-09-30T00:47:04;8.57;;;5.47;;
18726;SDS011;9492;51.888;5.186;2023-09-30T00:49:31;8.17;;;4.77;;
18726;SDS011;9492;51.888;5.186;2023-09-30T00:51:57;11.53;;;5.80;;
18726;SDS011;9492;51.888;5.186;2023-09-30T00:54:24;10.67;;;4.90;;
18726;SDS011;9492;51.888;5.186;2023-09-30T00:56:51;7.73;;;5.27;;
18726;SDS011;9492;51.888;5.186;2023-09-30T00:59:18;10.40;;;5.17;;
18726;SDS011;9492;51.888;5.186;2023-09-30T01:01:45;9.13;;;5.50;;
18726;SDS011;9492;51.888;5.186;2023-09-30T01:04:11;6.67;;;5.43;;
18726;SDS011;9492;51.888;5.186;2023-09-30T01:06:37;9.77;;;5.30;;
18726;SDS011;9492;51.888;5.186;2023-09-30T01:09:04;9.47;;;5.67;;
18726;SDS011;9492;51.888;5.186;2023-09-30T01:11:30;7.27;;;5.03;;
18726;SDS011;9492;51.888;5.186;2023-09-30T01:13:56;9.33;;;5.63;;
18726;SDS011;9492;51.888;5.186;2023-09-30T01:16:22;10.07;;;6.13;;
18726;SDS011;9492;51.888;5.186;2023-09-30T01:18:49;11.50;;;5.43;;
18726;SDS011;9492;51.888;5.186;2023-09-30T01:21:15;7.93;;;5.40;;
18726;SDS011;9492;51.888;5.186;2023-09-30T01:23:41;8.17;;;5.60;;
18726;SDS011;9492;51.888;5.186;2023-09-30T01:26:09;10.87;;;5.77;;
18726;SDS011;9492;51.888;5.186;2023-09-30T01:28:37;7.23;;;5.40;;
18726;SDS011;9492;51.888;5.186;2023-09-30T01:31:03;11.17;;;5.80;;
18726;SDS011;9492;51.888;5.186;2023-09-30T01:33:29;8.43;;;5.63;;
18726;SDS011;9492;51.888;5.186;2023-09-30T01:35:55;7.50;;;5.07;;
18726;SDS011;9492;51.888;5.186;2023-09-30T01:38:21;7.90;;;5.60;;
18726;SDS011;9492;51.888;5.186;2023-09-30T01:40:48;7.87;;;5.87;;
18726;SDS011;9492;51.888;5.186;2023-09-30T01:43:14;12.77;;;5.43;;
18726;SDS011;9492;51.888;5.186;2023-09-30T01:45:40;10.57;;;5.70;;
18726;SDS011;9492;51.888;5.186;2023-09-30T01:48:07;10.60;;;5.50;;
18726;SDS011;9492;51.888;5.186;2023-09-30T01:50:35;8.27;;;6.03;;
18726;SDS011;9492;51.888;5.186;2023-09-30T01:53:01;12.10;;;6.60;;
18726;SDS011;9492;51.888;5.186;2023-09-30T01:55:27;11.60;;;7.43;;
18726;SDS011;9492;51.888;5.186;2023-09-30T01:57:53;9.30;;;6.20;;
18726;SDS011;9492;51.888;5.186;2023-09-30T02:00:19;10.70;;;6.50;;
18726;SDS011;9492;51.888;5.186;2023-09-30T02:02:45;9.07;;;6.40;;
18726;SDS011;9492;51.888;5.186;2023-09-30T02:05:11;11.90;;;6.97;;
18726;SDS011;9492;51.888;5.186;2023-09-30T02:07:38;11.40;;;6.77;;
18726;SDS011;9492;51.888;5.186;2023-09-30T02:10:04;9.13;;;6.77;;
18726;SDS011;9492;51.888;5.186;2023-09-30T02:12:31;9.47;;;6.17;;
18726;SDS011;9492;51.888;5.186;2023-09-30T02:14:58;10.40;;;6.60;;
18726;SDS011;9492;51.888;5.186;2023-09-30T02:17:24;8.23;;;6.20;;
18726;SDS011;9492;51.888;5.186;2023-09-30T02:19:50;11.17;;;7.03;;
18726;SDS011;9492;51.888;5.186;2023-09-30T02:22:18;10.30;;;6.10;;
18726;SDS011;9492;51.888;5.186;2023-09-30T02:24:44;10.80;;;6.83;;
18726;SDS011;9492;51.888;5.186;2023-09-30T02:27:10;10.63;;;7.10;;
18726;SDS011;9492;51.888;5.186;2023-09-30T02:29:36;8.80;;;6.60;;
18726;SDS011;9492;51.888;5.186;2023-09-30T02:32:02;9.37;;;6.57;;
18726;SDS011;9492;51.888;5.186;2023-09-30T02:34:30;9.03;;;6.50;;
18726;SDS011;9492;51.888;5.186;2023-09-30T02:36:56;14.60;;;6.77;;
18726;SDS011;9492;51.888;5.186;2023-09-30T02:39:22;9.93;;;6.80;;
18726;SDS011;9492;51.888;5.186;2023-09-30T02:41:48;10.03;;;7.13;;
18726;SDS011;9492;51.888;5.186;2023-09-30T02:44:15;11.87;;;7.07;;
18726;SDS011;9492;51.888;5.186;2023-09-30T02:46:41;9.87;;;6.17;;
18726;SDS011;9492;51.888;5.186;2023-09-30T02:49:07;11.57;;;6.33;;
18726;SDS011;9492;51.888;5.186;2023-09-30T02:51:33;8.60;;;6.27;;
18726;SDS011;9492;51.888;5.186;2023-09-30T02:53:59;8.50;;;6.83;;
18726;SDS011;9492;51.888;5.186;2023-09-30T02:56:25;8.93;;;6.27;;
18726;SDS011;9492;51.888;5.186;2023-09-30T02:58:53;12.03;;;6.63;;
18726;SDS011;9492;51.888;5.186;2023-09-30T03:01:19;8.47;;;6.17;;
18726;SDS011;9492;51.888;5.186;2023-09-30T03:03:45;9.53;;;6.20;;
18726;SDS011;9492;51.888;5.186;2023-09-30T03:06:11;10.30;;;6.73;;
18726;SDS011;9492;51.888;5.186;2023-09-30T03:08:37;13.60;;;7.00;;
18726;SDS011;9492;51.888;5.186;2023-09-30T03:11:03;9.47;;;6.80;;
18726;SDS011;9492;51.888;5.186;2023-09-30T03:13:30;10.57;;;7.47;;
18726;SDS011;9492;51.888;5.186;2023-09-30T03:15:56;9.60;;;6.80;;
18726;SDS011;9492;51.888;5.186;2023-09-30T03:18:23;10.23;;;6.70;;
18726;SDS011;9492;51.888;5.186;2023-09-30T03:20:58;10.90;;;7.23;;
18726;SDS011;9492;51.888;5.186;2023-09-30T03:23:25;10.40;;;6.83;;
18726;SDS011;9492;51.888;5.186;2023-09-30T03:25:58;9.47;;;7.07;;
18726;SDS011;9492;51.888;5.186;2023-09-30T03:28:25;10.90;;;7.33;;
18726;SDS011;9492;51.888;5.186;2023-09-30T03:30:51;10.17;;;7.47;;
18726;SDS011;9492;51.888;5.186;2023-09-30T03:33:17;14.27;;;8.70;;
18726;SDS011;9492;51.888;5.186;2023-09-30T03:35:43;12.73;;;7.37;;
18726;SDS011;9492;51.888;5.186;2023-09-30T03:38:09;10.73;;;7.17;;
18726;SDS011;9492;51.888;5.186;2023-09-30T03:40:35;11.70;;;7.40;;
18726;SDS011;9492;51.888;5.186;2023-09-30T03:43:03;10.43;;;7.43;;
18726;SDS011;9492;51.888;5.186;2023-09-30T03:45:35;15.03;;;8.10;;
18726;SDS011;9492;51.888;5.186;2023-09-30T03:48:04;12.17;;;8.40;;
18726;SDS011;9492;51.888;5.186;2023-09-30T03:50:31;14.30;;;8.10;;
18726;SDS011;9492;51.888;5.186;2023-09-30T03:53:01;13.37;;;7.93;;
18726;SDS011;9492;51.888;5.186;2023-09-30T03:55:27;13.00;;;7.83;;
18726;SDS011;9492;51.888;5.186;2023-09-30T03:57:55;12.33;;;7.80;;
18726;SDS011;9492;51.888;5.186;2023-09-30T04:00:21;10.80;;;8.00;;
18726;SDS011;9492;51.888;5.186;2023-09-30T04:02:50;11.93;;;7.93;;
18726;SDS011;9492;51.888;5.186;2023-09-30T04:05:21;12.30;;;8.63;;
18726;SDS011;9492;51.888;5.186;2023-09-30T04:08:01;10.10;;;7.53;;
18726;SDS011;9492;51.888;5.186;2023-09-30T04:10:27;10.40;;;8.10;;
18726;SDS011;9492;51.888;5.186;2023-09-30T04:12:55;14.83;;;7.77;;
18726;SDS011;9492;51.888;5.186;2023-09-30T04:15:21;12.77;;;7.70;;
18726;SDS011;9492;51.888;5.186;2023-09-30T04:17:50;10.10;;;7.73;;
18726;SDS011;9492;51.888;5.186;2023-09-30T04:20:17;11.37;;;8.30;;
18726;SDS011;9492;51.888;5.186;2023-09-30T04:22:48;11.47;;;7.70;;
18726;SDS011;9492;51.888;5.186;2023-09-30T04:25:15;11.17;;;8.50;;
18726;SDS011;9492;51.888;5.186;2023-09-30T04:27:44;13.03;;;9.30;;
18726;SDS011;9492;51.888;5.186;2023-09-30T04:30:12;13.63;;;8.00;;
18726;SDS011;9492;51.888;5.186;2023-09-30T04:32:40;12.10;;;8.47;;
18726;SDS011;9492;51.888;5.186;2023-09-30T04:35:06;14.00;;;8.07;;
18726;SDS011;9492;51.888;5.186;2023-09-30T04:37:36;11.20;;;9.13;;
18726;SDS011;9492;51.888;5.186;2023-09-30T04:40:05;14.07;;;8.80;;
18726;SDS011;9492;51.888;5.186;2023-09-30T04:42:40;14.40;;;8.57;;
18726;SDS011;9492;51.888;5.186;2023-09-30T04:45:06;11.50;;;8.10;;
18726;SDS011;9492;51.888;5.186;2023-09-30T04:47:33;13.60;;;8.50;;
18726;SDS011;9492;51.888;5.186;2023-09-30T04:49:59;11.53;;;8.03;;
18726;SDS011;9492;51.888;5.186;2023-09-30T04:52:29;11.53;;;7.80;;
18726;SDS011;9492;51.888;5.186;2023-09-30T04:54:56;11.97;;;8.67;;
18726;SDS011;9492;51.888;5.186;2023-09-30T04:57:22;13.40;;;8.20;;
18726;SDS011;9492;51.888;5.186;2023-09-30T04:59:48;14.77;;;8.30;;
18726;SDS011;9492;51.888;5.186;2023-09-30T05:02:14;12.77;;;8.03;;
18726;SDS011;9492;51.888;5.186;2023-09-30T05:04:40;10.97;;;7.90;;
18726;SDS011;9492;51.888;5.186;2023-09-30T05:07:07;10.43;;;7.63;;
18726;SDS011;9492;51.888;5.186;2023-09-30T05:09:33;11.00;;;8.17;;
18726;SDS011;9492;51.888;5.186;2023-09-30T05:11:59;12.83;;;8.17;;
18726;SDS011;9492;51.888;5.186;2023-09-30T05:14:25;11.43;;;8.33;;
18726;SDS011;9492;51.888;5.186;2023-09-30T05:16:53;12.63;;;8.30;;
18726;SDS011;9492;51.888;5.186;2023-09-30T05:19:21;18.93;;;9.03;;
18726;SDS011;9492;51.888;5.186;2023-09-30T05:21:47;11.93;;;8.37;;
18726;SDS011;9492;51.888;5.186;2023-09-30T05:24:14;13.53;;;8.40;;
18726;SDS011;9492;51.888;5.186;2023-09-30T05:26:40;10.20;;;8.63;;
18726;SDS011;9492;51.888;5.186;2023-09-30T05:29:06;11.43;;;8.43;;
18726;SDS011;9492;51.888;5.186;2023-09-30T05:31:32;9.17;;;6.87;;
18726;SDS011;9492;51.888;5.186;2023-09-30T05:33:58;12.77;;;8.73;;
18726;SDS011;9492;51.888;5.186;2023-09-30T05:36:24;12.43;;;7.77;;
18726;SDS011;9492;51.888;5.186;2023-09-30T05:38:50;10.97;;;7.70;;
18726;SDS011;9492;51.888;5.186;2023-09-30T05:41:16;13.70;;;8.57;;
18726;SDS011;9492;51.888;5.186;2023-09-30T05:43:43;12.90;;;8.73;;
18726;SDS011;9492;51.888;5.186;2023-09-30T05:46:09;13.83;;;8.27;;
18726;SDS011;9492;51.888;5.186;2023-09-30T05:48:35;13.73;;;9.03;;
18726;SDS011;9492;51.888;5.186;2023-09-30T05:51:01;11.97;;;8.37;;
18726;SDS011;9492;51.888;5.186;2023-09-30T05:53:28;12.20;;;8.93;;
18726;SDS011;9492;51.888;5.186;2023-09-30T05:55:54;13.17;;;8.87;;
18726;SDS011;9492;51.888;5.186;2023-09-30T05:58:19;13.70;;;9.10;;
18726;SDS011;9492;51.888;5.186;2023-09-30T06:00:45;12.67;;;9.30;;
18726;SDS011;9492;51.888;5.186;2023-09-30T06:03:11;11.43;;;8.40;;
18726;SDS011;9492;51.888;5.186;2023-09-30T06:05:41;9.63;;;8.13;;
18726;SDS011;9492;51.888;5.186;2023-09-30T06:08:08;11.73;;;8.03;;
18726;SDS011;9492;51.888;5.186;2023-09-30T06:10:35;14.07;;;9.43;;
18726;SDS011;9492;51.888;5.186;2023-09-30T06:13:07;11.67;;;8.53;;
18726;SDS011;9492;51.888;5.186;2023-09-30T06:15:33;11.53;;;8.30;;
18726;SDS011;9492;51.888;5.186;2023-09-30T06:17:59;11.73;;;8.30;;
18726;SDS011;9492;51.888;5.186;2023-09-30T06:20:26;11.43;;;8.23;;
18726;SDS011;9492;51.888;5.186;2023-09-30T06:22:52;12.23;;;8.80;;
18726;SDS011;9492;51.888;5.186;2023-09-30T06:25:21;10.73;;;8.10;;
18726;SDS011;9492;51.888;5.186;2023-09-30T06:27:49;12.97;;;7.80;;
18726;SDS011;9492;51.888;5.186;2023-09-30T06:30:15;12.33;;;8.13;;
18726;SDS011;9492;51.888;5.186;2023-09-30T06:32:42;13.93;;;8.87;;
18726;SDS011;9492;51.888;5.186;2023-09-30T06:35:08;15.77;;;8.87;;
18726;SDS011;9492;51.888;5.186;2023-09-30T06:37:38;12.97;;;8.00;;
18726;SDS011;9492;51.888;5.186;2023-09-30T06:40:07;14.97;;;9.47;;
18726;SDS011;9492;51.888;5.186;2023-09-30T06:42:34;14.07;;;8.80;;
18726;SDS011;9492;51.888;5.186;2023-09-30T06:45:00;12.40;;;8.40;;
18726;SDS011;9492;51.888;5.186;2023-09-30T06:47:26;13.80;;;9.33;;
18726;SDS011;9492;51.888;5.186;2023-09-30T06:49:52;14.67;;;9.23;;
18726;SDS011;9492;51.888;5.186;2023-09-30T06:52:18;14.17;;;8.97;;
18726;SDS011;9492;51.888;5.186;2023-09-30T06:54:45;13.40;;;9.47;;
18726;SDS011;9492;51.888;5.186;2023-09-30T06:57:11;14.93;;;9.43;;
18726;SDS011;9492;51.888;5.186;2023-09-30T06:59:37;13.17;;;8.70;;
18726;SDS011;9492;51.888;5.186;2023-09-30T07:02:03;17.57;;;10.13;;
18726;SDS011;9492;51.888;5.186;2023-09-30T07:04:29;15.63;;;9.30;;
18726;SDS011;9492;51.888;5.186;2023-09-30T07:06:55;17.43;;;9.50;;
18726;SDS011;9492;51.888;5.186;2023-09-30T07:09:21;15.87;;;8.87;;
18726;SDS011;9492;51.888;5.186;2023-09-30T07:11:47;12.80;;;8.37;;
18726;SDS011;9492;51.888;5.186;2023-09-30T07:14:14;11.37;;;8.37;;
18726;SDS011;9492;51.888;5.186;2023-09-30T07:16:41;14.17;;;9.77;;
18726;SDS011;9492;51.888;5.186;2023-09-30T07:19:07;13.20;;;8.53;;
18726;SDS011;9492;51.888;5.186;2023-09-30T07:21:33;12.60;;;9.20;;
18726;SDS011;9492;51.888;5.186;2023-09-30T07:23:59;10.83;;;8.63;;
18726;SDS011;9492;51.888;5.186;2023-09-30T07:26:25;12.23;;;9.00;;
18726;SDS011;9492;51.888;5.186;2023-09-30T07:28:53;11.97;;;9.13;;
18726;SDS011;9492;51.888;5.186;2023-09-30T07:31:21;13.67;;;9.00;;
18726;SDS011;9492;51.888;5.186;2023-09-30T07:33:48;16.60;;;9.67;;
18726;SDS011;9492;51.888;5.186;2023-09-30T07:36:14;16.00;;;9.43;;
18726;SDS011;9492;51.888;5.186;2023-09-30T07:38:40;13.57;;;8.87;;
18726;SDS011;9492;51.888;5.186;2023-09-30T07:41:06;12.40;;;8.60;;
18726;SDS011;9492;51.888;5.186;2023-09-30T07:43:35;14.73;;;9.03;;
18726;SDS011;9492;51.888;5.186;2023-09-30T07:46:07;15.37;;;8.80;;
18726;SDS011;9492;51.888;5.186;2023-09-30T07:48:33;17.33;;;9.30;;
18726;SDS011;9492;51.888;5.186;2023-09-30T07:51:00;16.97;;;8.87;;
18726;SDS011;9492;51.888;5.186;2023-09-30T07:53:26;17.87;;;9.37;;
18726;SDS011;9492;51.888;5.186;2023-09-30T07:55:52;12.30;;;8.30;;
18726;SDS011;9492;51.888;5.186;2023-09-30T07:58:19;13.47;;;8.97;;
18726;SDS011;9492;51.888;5.186;2023-09-30T08:00:45;15.37;;;9.40;;
18726;SDS011;9492;51.888;5.186;2023-09-30T08:03:11;16.10;;;8.93;;
18726;SDS011;9492;51.888;5.186;2023-09-30T08:05:37;14.33;;;8.67;;
18726;SDS011;9492;51.888;5.186;2023-09-30T08:08:03;16.60;;;9.97;;
18726;SDS011;9492;51.888;5.186;2023-09-30T08:10:30;13.93;;;8.13;;
18726;SDS011;9492;51.888;5.186;2023-09-30T08:12:57;16.37;;;8.60;;
18726;SDS011;9492;51.888;5.186;2023-09-30T08:15:26;13.77;;;8.77;;
18726;SDS011;9492;51.888;5.186;2023-09-30T08:17:52;13.97;;;8.93;;
18726;SDS011;9492;51.888;5.186;2023-09-30T08:20:18;15.60;;;8.43;;
18726;SDS011;9492;51.888;5.186;2023-09-30T08:22:44;10.77;;;7.83;;
18726;SDS011;9492;51.888;5.186;2023-09-30T08:25:10;12.27;;;8.77;;
18726;SDS011;9492;51.888;5.186;2023-09-30T08:27:36;13.90;;;9.13;;
18726;SDS011;9492;51.888;5.186;2023-09-30T08:30:03;14.60;;;8.70;;
18726;SDS011;9492;51.888;5.186;2023-09-30T08:32:32;19.07;;;10.53;;
18726;SDS011;9492;51.888;5.186;2023-09-30T08:34:58;13.73;;;8.67;;
18726;SDS011;9492;51.888;5.186;2023-09-30T08:37:24;16.10;;;9.03;;
18726;SDS011;9492;51.888;5.186;2023-09-30T08:39:50;15.93;;;10.50;;
18726;SDS011;9492;51.888;5.186;2023-09-30T08:42:16;14.67;;;9.20;;
18726;SDS011;9492;51.888;5.186;2023-09-30T08:44:44;16.67;;;8.53;;
18726;SDS011;9492;51.888;5.186;2023-09-30T08:47:11;17.50;;;9.63;;
18726;SDS011;9492;51.888;5.186;2023-09-30T08:49:37;17.57;;;8.70;;
18726;SDS011;9492;51.888;5.186;2023-09-30T08:52:07;13.10;;;8.50;;
18726;SDS011;9492;51.888;5.186;2023-09-30T08:54:34;16.63;;;9.03;;
18726;SDS011;9492;51.888;5.186;2023-09-30T08:57:00;13.13;;;8.83;;
18726;SDS011;9492;51.888;5.186;2023-09-30T08:59:29;19.07;;;10.20;;
18726;SDS011;9492;51.888;5.186;2023-09-30T09:01:57;14.13;;;8.57;;
18726;SDS011;9492;51.888;5.186;2023-09-30T09:04:23;14.03;;;7.90;;
18726;SDS011;9492;51.888;5.186;2023-09-30T09:06:50;10.57;;;7.57;;
18726;SDS011;9492;51.888;5.186;2023-09-30T09:09:16;12.33;;;8.37;;
18726;SDS011;9492;51.888;5.186;2023-09-30T09:11:46;12.97;;;8.13;;
18726;SDS011;9492;51.888;5.186;2023-09-30T09:14:12;14.03;;;9.00;;
18726;SDS011;9492;51.888;5.186;2023-09-30T09:16:50;13.27;;;8.63;;
18726;SDS011;9492;51.888;5.186;2023-09-30T09:19:17;14.30;;;7.93;;
18726;SDS011;9492;51.888;5.186;2023-09-30T09:22:01;11.67;;;7.30;;
18726;SDS011;9492;51.888;5.186;2023-09-30T09:24:33;12.13;;;7.60;;
18726;SDS011;9492;51.888;5.186;2023-09-30T09:27:12;15.47;;;9.20;;
18726;SDS011;9492;51.888;5.186;2023-09-30T09:29:41;13.80;;;8.03;;
18726;SDS011;9492;51.888;5.186;2023-09-30T09:32:14;11.80;;;7.73;;
18726;SDS011;9492;51.888;5.186;2023-09-30T09:34:40;10.10;;;7.27;;
18726;SDS011;9492;51.888;5.186;2023-09-30T09:37:13;13.00;;;7.53;;
18726;SDS011;9492;51.888;5.186;2023-09-30T09:39:56;13.27;;;8.70;;
18726;SDS011;9492;51.888;5.186;2023-09-30T09:42:26;12.87;;;7.83;;
18726;SDS011;9492;51.888;5.186;2023-09-30T09:44:54;12.80;;;7.43;;
18726;SDS011;9492;51.888;5.186;2023-09-30T09:47:21;13.50;;;7.77;;
18726;SDS011;9492;51.888;5.186;2023-09-30T09:49:47;13.30;;;7.73;;
18726;SDS011;9492;51.888;5.186;2023-09-30T09:52:14;13.83;;;8.90;;
18726;SDS011;9492;51.888;5.186;2023-09-30T09:54:41;12.33;;;7.87;;
18726;SDS011;9492;51.888;5.186;2023-09-30T09:57:09;12.37;;;7.73;;
18726;SDS011;9492;51.888;5.186;2023-09-30T09:59:39;13.83;;;8.90;;
18726;SDS011;9492;51.888;5.186;2023-09-30T10:02:11;17.33;;;10.40;;
18726;SDS011;9492;51.888;5.186;2023-09-30T10:04:39;16.93;;;10.17;;
18726;SDS011;9492;51.888;5.186;2023-09-30T10:07:05;14.37;;;10.67;;
18726;SDS011;9492;51.888;5.186;2023-09-30T10:09:33;17.83;;;11.60;;
18726;SDS011;9492;51.888;5.186;2023-09-30T10:12:00;20.17;;;12.10;;
18726;SDS011;9492;51.888;5.186;2023-09-30T10:14:31;18.17;;;10.13;;
18726;SDS011;9492;51.888;5.186;2023-09-30T10:17:03;14.30;;;8.93;;
18726;SDS011;9492;51.888;5.186;2023-09-30T10:19:29;15.63;;;10.30;;
18726;SDS011;9492;51.888;5.186;2023-09-30T10:24:42;16.23;;;10.70;;
18726;SDS011;9492;51.888;5.186;2023-09-30T10:29:54;16.80;;;10.50;;
18726;SDS011;9492;51.888;5.186;2023-09-30T10:32:20;19.13;;;12.20;;
18726;SDS011;9492;51.888;5.186;2023-09-30T10:34:49;17.10;;;10.83;;
18726;SDS011;9492;51.888;5.186;2023-09-30T10:37:21;17.40;;;10.53;;
18726;SDS011;9492;51.888;5.186;2023-09-30T10:39:54;21.40;;;12.10;;
18726;SDS011;9492;51.888;5.186;2023-09-30T10:45:06;17.57;;;11.50;;
18726;SDS011;9492;51.888;5.186;2023-09-30T10:47:35;18.07;;;10.63;;
18726;SDS011;9492;51.888;5.186;2023-09-30T10:50:02;19.50;;;12.30;;
18726;SDS011;9492;51.888;5.186;2023-09-30T10:52:29;18.63;;;11.27;;
18726;SDS011;9492;51.888;5.186;2023-09-30T10:55:01;19.43;;;11.30;;
18726;SDS011;9492;51.888;5.186;2023-09-30T10:57:27;18.47;;;10.17;;
18726;SDS011;9492;51.888;5.186;2023-09-30T11:00:06;16.87;;;9.43;;
18726;SDS011;9492;51.888;5.186;2023-09-30T11:02:33;15.40;;;9.03;;
18726;SDS011;9492;51.888;5.186;2023-09-30T11:05:08;12.50;;;9.03;;
18726;SDS011;9492;51.888;5.186;2023-09-30T11:07:34;13.77;;;8.00;;
18726;SDS011;9492;51.888;5.186;2023-09-30T11:10:01;16.37;;;6.80;;
18726;SDS011;9492;51.888;5.186;2023-09-30T11:12:27;11.10;;;6.03;;
18726;SDS011;9492;51.888;5.186;2023-09-30T11:15:02;10.03;;;7.10;;
18726;SDS011;9492;51.888;5.186;2023-09-30T11:17:28;8.63;;;5.77;;
18726;SDS011;9492;51.888;5.186;2023-09-30T11:19:54;13.77;;;6.20;;
18726;SDS011;9492;51.888;5.186;2023-09-30T11:22:20;11.87;;;6.70;;
18726;SDS011;9492;51.888;5.186;2023-09-30T11:24:47;13.90;;;6.83;;
18726;SDS011;9492;51.888;5.186;2023-09-30T11:27:13;10.60;;;5.53;;
18726;SDS011;9492;51.888;5.186;2023-09-30T11:29:48;9.37;;;5.17;;
18726;SDS011;9492;51.888;5.186;2023-09-30T11:32:27;8.80;;;5.30;;
18726;SDS011;9492;51.888;5.186;2023-09-30T11:34:53;9.83;;;5.60;;
18726;SDS011;9492;51.888;5.186;2023-09-30T11:37:20;10.63;;;5.27;;
18726;SDS011;9492;51.888;5.186;2023-09-30T11:39:48;11.37;;;5.20;;
18726;SDS011;9492;51.888;5.186;2023-09-30T11:42:15;10.93;;;5.00;;
18726;SDS011;9492;51.888;5.186;2023-09-30T11:44:45;11.07;;;5.27;;
18726;SDS011;9492;51.888;5.186;2023-09-30T11:47:15;11.97;;;6.00;;
18726;SDS011;9492;51.888;5.186;2023-09-30T11:49:44;11.40;;;4.90;;
18726;SDS011;9492;51.888;5.186;2023-09-30T11:52:25;12.23;;;5.33;;
18726;SDS011;9492;51.888;5.186;2023-09-30T11:54:51;12.97;;;5.70;;
18726;SDS011;9492;51.888;5.186;2023-09-30T11:57:18;15.10;;;5.40;;
18726;SDS011;9492;51.888;5.186;2023-09-30T11:59:44;24.70;;;8.07;;
18726;SDS011;9492;51.888;5.186;2023-09-30T12:02:11;10.37;;;5.10;;
18726;SDS011;9492;51.888;5.186;2023-09-30T12:04:37;12.87;;;4.77;;
18726;SDS011;9492;51.888;5.186;2023-09-30T12:07:03;8.43;;;4.77;;
18726;SDS011;9492;51.888;5.186;2023-09-30T12:09:31;8.40;;;4.80;;
18726;SDS011;9492;51.888;5.186;2023-09-30T12:12:00;8.20;;;3.97;;
18726;SDS011;9492;51.888;5.186;2023-09-30T12:14:26;8.23;;;3.70;;
18726;SDS011;9492;51.888;5.186;2023-09-30T12:16:55;6.33;;;3.23;;
18726;SDS011;9492;51.888;5.186;2023-09-30T12:19:21;7.47;;;3.10;;
18726;SDS011;9492;51.888;5.186;2023-09-30T12:21:47;4.00;;;3.00;;
18726;SDS011;9492;51.888;5.186;2023-09-30T12:24:14;8.37;;;3.23;;
18726;SDS011;9492;51.888;5.186;2023-09-30T12:26:45;9.90;;;4.07;;
18726;SDS011;9492;51.888;5.186;2023-09-30T12:29:13;7.03;;;4.03;;
18726;SDS011;9492;51.888;5.186;2023-09-30T12:31:41;7.30;;;3.30;;
18726;SDS011;9492;51.888;5.186;2023-09-30T12:34:08;6.47;;;2.80;;
18726;SDS011;9492;51.888;5.186;2023-09-30T12:36:34;7.17;;;2.70;;
18726;SDS011;9492;51.888;5.186;2023-09-30T12:39:00;7.10;;;3.10;;
18726;SDS011;9492;51.888;5.186;2023-09-30T12:41:26;6.23;;;2.60;;
18726;SDS011;9492;51.888;5.186;2023-09-30T12:43:54;7.60;;;3.60;;
18726;SDS011;9492;51.888;5.186;2023-09-30T12:46:22;9.57;;;4.67;;
18726;SDS011;9492;51.888;5.186;2023-09-30T12:48:49;9.63;;;4.00;;
18726;SDS011;9492;51.888;5.186;2023-09-30T12:51:15;10.43;;;4.73;;
18726;SDS011;9492;51.888;5.186;2023-09-30T12:53:42;9.47;;;5.00;;
18726;SDS011;9492;51.888;5.186;2023-09-30T12:56:07;12.63;;;6.17;;
18726;SDS011;9492;51.888;5.186;2023-09-30T12:58:33;8.27;;;4.50;;
18726;SDS011;9492;51.888;5.186;2023-09-30T13:00:59;9.77;;;3.83;;
18726;SDS011;9492;51.888;5.186;2023-09-30T13:03:25;6.37;;;3.87;;
18726;SDS011;9492;51.888;5.186;2023-09-30T13:05:51;9.33;;;5.10;;
18726;SDS011;9492;51.888;5.186;2023-09-30T13:08:19;9.13;;;4.13;;
18726;SDS011;9492;51.888;5.186;2023-09-30T13:10:45;7.63;;;4.17;;
18726;SDS011;9492;51.888;5.186;2023-09-30T13:13:15;10.10;;;4.63;;
18726;SDS011;9492;51.888;5.186;2023-09-30T13:15:41;9.40;;;3.80;;
18726;SDS011;9492;51.888;5.186;2023-09-30T13:18:07;10.93;;;4.20;;
18726;SDS011;9492;51.888;5.186;2023-09-30T13:20:33;9.43;;;4.30;;
18726;SDS011;9492;51.888;5.186;2023-09-30T13:22:59;12.47;;;5.43;;
18726;SDS011;9492;51.888;5.186;2023-09-30T13:25:25;13.47;;;5.80;;
18726;SDS011;9492;51.888;5.186;2023-09-30T13:27:51;11.00;;;5.93;;
18726;SDS011;9492;51.888;5.186;2023-09-30T13:30:17;10.70;;;5.90;;
18726;SDS011;9492;51.888;5.186;2023-09-30T13:32:43;10.77;;;4.80;;
18726;SDS011;9492;51.888;5.186;2023-09-30T13:35:09;13.47;;;5.50;;
18726;SDS011;9492;51.888;5.186;2023-09-30T13:37:35;10.53;;;4.83;;
18726;SDS011;9492;51.888;5.186;2023-09-30T13:40:02;9.33;;;4.73;;
18726;SDS011;9492;51.888;5.186;2023-09-30T13:42:29;9.87;;;5.13;;
18726;SDS011;9492;51.888;5.186;2023-09-30T13:44:56;8.47;;;4.80;;
18726;SDS011;9492;51.888;5.186;2023-09-30T13:47:23;8.27;;;4.80;;
18726;SDS011;9492;51.888;5.186;2023-09-30T13:49:49;5.83;;;4.03;;
18726;SDS011;9492;51.888;5.186;2023-09-30T13:52:15;8.00;;;4.20;;
18726;SDS011;9492;51.888;5.186;2023-09-30T13:54:41;9.87;;;4.47;;
18726;SDS011;9492;51.888;5.186;2023-09-30T13:57:06;7.57;;;4.13;;
18726;SDS011;9492;51.888;5.186;2023-09-30T13:59:36;13.40;;;5.17;;
18726;SDS011;9492;51.888;5.186;2023-09-30T14:02:02;11.33;;;4.60;;
18726;SDS011;9492;51.888;5.186;2023-09-30T14:04:31;8.07;;;3.60;;
18726;SDS011;9492;51.888;5.186;2023-09-30T14:07:00;8.87;;;3.90;;
18726;SDS011;9492;51.888;5.186;2023-09-30T14:09:27;8.40;;;3.83;;
18726;SDS011;9492;51.888;5.186;2023-09-30T14:11:53;9.13;;;4.17;;
18726;SDS011;9492;51.888;5.186;2023-09-30T14:14:19;7.60;;;3.77;;
18726;SDS011;9492;51.888;5.186;2023-09-30T14:16:45;11.13;;;4.30;;
18726;SDS011;9492;51.888;5.186;2023-09-30T14:19:12;8.40;;;3.67;;
18726;SDS011;9492;51.888;5.186;2023-09-30T14:21:39;9.27;;;3.80;;
18726;SDS011;9492;51.888;5.186;2023-09-30T14:24:05;11.80;;;3.73;;
18726;SDS011;9492;51.888;5.186;2023-09-30T14:26:31;8.50;;;3.80;;
18726;SDS011;9492;51.888;5.186;2023-09-30T14:28:58;6.70;;;3.23;;
18726;SDS011;9492;51.888;5.186;2023-09-30T14:31:24;7.57;;;2.80;;
18726;SDS011;9492;51.888;5.186;2023-09-30T14:33:50;9.90;;;3.53;;
18726;SDS011;9492;51.888;5.186;2023-09-30T14:36:16;7.70;;;3.10;;
18726;SDS011;9492;51.888;5.186;2023-09-30T14:38:43;11.23;;;3.90;;
18726;SDS011;9492;51.888;5.186;2023-09-30T14:41:10;8.13;;;3.47;;
18726;SDS011;9492;51.888;5.186;2023-09-30T14:43:37;9.23;;;3.57;;
18726;SDS011;9492;51.888;5.186;2023-09-30T14:46:03;8.37;;;3.37;;
18726;SDS011;9492;51.888;5.186;2023-09-30T14:48:29;9.30;;;3.47;;
18726;SDS011;9492;51.888;5.186;2023-09-30T14:50:55;9.57;;;3.73;;
18726;SDS011;9492;51.888;5.186;2023-09-30T14:53:21;7.00;;;3.27;;
18726;SDS011;9492;51.888;5.186;2023-09-30T14:55:48;10.50;;;4.10;;
18726;SDS011;9492;51.888;5.186;2023-09-30T14:58:14;11.70;;;3.57;;